THA1 VTCL-VTBS
Flight info
| Callsign | THA1 |
|---|---|
| Flight time | 0h 36m |
| Altitude | 43000 |
| Route | VENAG1D VENAG W23 PSL Y28 BLAFF DCT NORTA NORTA1D |
| Aircraft | SR71/M-SBDE3FGHRWXY/S |
Departure
| Time | 2026-05-08 14:24 |
|---|---|
| Airport | Lampang Airport (VTCL) |
Arrival
| Time | 2026-05-08 15:01 |
|---|---|
| Airport | Suvarnabhumi Airport (VTBS) |
| Time | Latitude | Longitude | Altitude | Speed | Heading |
|---|---|---|---|---|---|
| 2026-05-08 14:23 | 18.27949 | 99.50344 | 795 ft | 0 kts | 175° |
| 2026-05-08 14:24 | 18.27369 | 99.50391 | 796 ft | 216 kts | 175° |
| 2026-05-08 14:24 | 18.25495 | 99.50565 | 1401 ft | 313 kts | 175° |
| 2026-05-08 14:24 | 18.23300 | 99.50888 | 2172 ft | 320 kts | 165° |
| 2026-05-08 14:25 | 18.21223 | 99.51667 | 3439 ft | 316 kts | 158° |
| 2026-05-08 14:25 | 18.19069 | 99.52382 | 4562 ft | 322 kts | 166° |
| 2026-05-08 14:25 | 18.16930 | 99.52903 | 6052 ft | 322 kts | 166° |
| 2026-05-08 14:25 | 18.14883 | 99.53416 | 8558 ft | 298 kts | 165° |
| 2026-05-08 14:26 | 18.12761 | 99.53976 | 10888 ft | 328 kts | 164° |
| 2026-05-08 14:26 | 18.10514 | 99.54619 | 12801 ft | 326 kts | 163° |
| 2026-05-08 14:26 | 18.08306 | 99.55317 | 14628 ft | 342 kts | 162° |
| 2026-05-08 14:26 | 18.06068 | 99.56014 | 16260 ft | 323 kts | 163° |
| 2026-05-08 14:27 | 18.03912 | 99.56619 | 18112 ft | 322 kts | 166° |
| 2026-05-08 14:27 | 18.01705 | 99.57142 | 19323 ft | 314 kts | 169° |
| 2026-05-08 14:27 | 17.99841 | 99.57545 | 21814 ft | 274 kts | 166° |
| 2026-05-08 14:27 | 17.98194 | 99.57953 | 24062 ft | 219 kts | 168° |
| 2026-05-08 14:28 | 17.96806 | 99.58290 | 25878 ft | 191 kts | 163° |
| 2026-05-08 14:28 | 17.95394 | 99.58678 | 26620 ft | 230 kts | 168° |
| 2026-05-08 14:28 | 17.93826 | 99.59140 | 27118 ft | 238 kts | 165° |
| 2026-05-08 14:28 | 17.92212 | 99.59654 | 27775 ft | 245 kts | 165° |
| 2026-05-08 14:29 | 17.90678 | 99.60106 | 29486 ft | 214 kts | 168° |
| 2026-05-08 14:29 | 17.89279 | 99.60468 | 31228 ft | 206 kts | 171° |
| 2026-05-08 14:29 | 17.87788 | 99.60770 | 32163 ft | 234 kts | 174° |
| 2026-05-08 14:29 | 17.86093 | 99.60960 | 32924 ft | 253 kts | 181° |
| 2026-05-08 14:30 | 17.84369 | 99.61376 | 34023 ft | 264 kts | 163° |
| 2026-05-08 14:30 | 17.82453 | 99.62133 | 34283 ft | 319 kts | 161° |
| 2026-05-08 14:30 | 17.80131 | 99.63019 | 34719 ft | 387 kts | 163° |
| 2026-05-08 14:30 | 17.77458 | 99.64058 | 36129 ft | 429 kts | 161° |
| 2026-05-08 14:31 | 17.74554 | 99.65262 | 38569 ft | 478 kts | 159° |
| 2026-05-08 14:31 | 17.71282 | 99.66788 | 40761 ft | 557 kts | 155° |
| 2026-05-08 14:31 | 17.67362 | 99.68892 | 43441 ft | 692 kts | 153° |
| 2026-05-08 14:32 | 17.57974 | 99.74869 | 56053 ft | 942 kts | 147° |
| 2026-05-08 14:32 | 17.52846 | 99.79497 | 61923 ft | 1012 kts | 133° |
| 2026-05-08 14:32 | 17.48029 | 99.85546 | 69482 ft | 1156 kts | 131° |
| 2026-05-08 14:32 | 17.42194 | 99.92145 | 76953 ft | 1317 kts | 137° |
| 2026-05-08 14:33 | 17.34856 | 99.99108 | 83256 ft | 1568 kts | 138° |
| 2026-05-08 14:33 | 17.26149 | 100.07788 | 84651 ft | 1884 kts | 136° |
| 2026-05-08 14:33 | 17.15727 | 100.17536 | 83955 ft | 2129 kts | 142° |
| 2026-05-08 14:33 | 17.03295 | 100.27392 | 84144 ft | 2356 kts | 145° |
| 2026-05-08 14:34 | 16.89001 | 100.37248 | 84556 ft | 2565 kts | 149° |
| 2026-05-08 14:34 | 16.72952 | 100.46919 | 85090 ft | 2760 kts | 152° |
| 2026-05-08 14:34 | 16.55267 | 100.56355 | 85323 ft | 2943 kts | 154° |
| 2026-05-08 14:34 | 16.38188 | 100.64767 | 84472 ft | 1945 kts | 157° |
| 2026-05-08 14:35 | 16.27424 | 100.69317 | 83344 ft | 1538 kts | 161° |
| 2026-05-08 14:35 | 16.17613 | 100.72602 | 82175 ft | 1434 kts | 165° |
| 2026-05-08 14:35 | 16.08155 | 100.75076 | 81100 ft | 1372 kts | 168° |
| 2026-05-08 14:35 | 15.99002 | 100.76956 | 80070 ft | 1312 kts | 171° |
| 2026-05-08 14:36 | 15.90185 | 100.78380 | 79049 ft | 1250 kts | 173° |
| 2026-05-08 14:36 | 15.81731 | 100.79476 | 77756 ft | 1198 kts | 174° |
| 2026-05-08 14:36 | 15.73637 | 100.80328 | 76161 ft | 1142 kts | 176° |
| 2026-05-08 14:36 | 15.65915 | 100.80989 | 74358 ft | 1083 kts | 176° |
| 2026-05-08 14:37 | 15.61038 | 100.81340 | 73175 ft | 1041 kts | 178° |
| 2026-05-08 14:37 | 15.51768 | 100.81885 | 70810 ft | 951 kts | 178° |
| 2026-05-08 14:37 | 15.45361 | 100.82206 | 69134 ft | 913 kts | 172° |
| 2026-05-08 14:37 | 15.39269 | 100.82493 | 67470 ft | 838 kts | 171° |
| 2026-05-08 14:38 | 15.33642 | 100.82736 | 65828 ft | 781 kts | 177° |
| 2026-05-08 14:38 | 15.28416 | 100.82950 | 64161 ft | 726 kts | 184° |
| 2026-05-08 14:38 | 15.23563 | 100.83126 | 62537 ft | 667 kts | 175° |
| 2026-05-08 14:38 | 15.19165 | 100.83268 | 60843 ft | 590 kts | 187° |
| 2026-05-08 14:39 | 15.15340 | 100.83252 | 58979 ft | 514 kts | 168° |
| 2026-05-08 14:39 | 15.11980 | 100.83325 | 57329 ft | 450 kts | 171° |
| 2026-05-08 14:39 | 15.09075 | 100.83426 | 55407 ft | 387 kts | 165° |
| 2026-05-08 14:39 | 15.07365 | 100.83608 | 53755 ft | 362 kts | 178° |
| 2026-05-08 14:40 | 15.04904 | 100.83834 | 50712 ft | 356 kts | 173° |
| 2026-05-08 14:40 | 15.02459 | 100.84012 | 47526 ft | 351 kts | 181° |
| 2026-05-08 14:40 | 14.99950 | 100.84104 | 44202 ft | 379 kts | 175° |
| 2026-05-08 14:40 | 14.97097 | 100.84179 | 40613 ft | 440 kts | 175° |
| 2026-05-08 14:41 | 14.92663 | 100.84264 | 36342 ft | 523 kts | 178° |
| 2026-05-08 14:41 | 14.90108 | 100.84293 | 34075 ft | 563 kts | 179° |
| 2026-05-08 14:41 | 14.84749 | 100.84332 | 28333 ft | 592 kts | 179° |
| 2026-05-08 14:41 | 14.80611 | 100.84360 | 24035 ft | 596 kts | 179° |
| 2026-05-08 14:42 | 14.77808 | 100.84381 | 21101 ft | 597 kts | 179° |
| 2026-05-08 14:42 | 14.73652 | 100.84408 | 17855 ft | 592 kts | 179° |
| 2026-05-08 14:42 | 14.68453 | 100.84418 | 17157 ft | 541 kts | 179° |
| 2026-05-08 14:42 | 14.65951 | 100.84415 | 16808 ft | 525 kts | 179° |
| 2026-05-08 14:43 | 14.62364 | 100.84404 | 16281 ft | 508 kts | 179° |
| 2026-05-08 14:43 | 14.58873 | 100.84389 | 15754 ft | 496 kts | 179° |
| 2026-05-08 14:43 | 14.55459 | 100.84371 | 15234 ft | 486 kts | 179° |
| 2026-05-08 14:43 | 14.52120 | 100.84351 | 14720 ft | 478 kts | 179° |
| 2026-05-08 14:44 | 14.48816 | 100.84330 | 14216 ft | 471 kts | 179° |
| 2026-05-08 14:44 | 14.45556 | 100.84307 | 13719 ft | 466 kts | 179° |
| 2026-05-08 14:44 | 14.42332 | 100.84284 | 13166 ft | 460 kts | 179° |
| 2026-05-08 14:44 | 14.39127 | 100.84259 | 12621 ft | 456 kts | 179° |
| 2026-05-08 14:45 | 14.35991 | 100.84234 | 12096 ft | 451 kts | 179° |
| 2026-05-08 14:45 | 14.32904 | 100.84206 | 11593 ft | 447 kts | 179° |
| 2026-05-08 14:45 | 14.29763 | 100.84176 | 11089 ft | 443 kts | 179° |
| 2026-05-08 14:45 | 14.26734 | 100.84145 | 10612 ft | 440 kts | 179° |
| 2026-05-08 14:46 | 14.23645 | 100.84111 | 10123 ft | 436 kts | 179° |
| 2026-05-08 14:46 | 14.20671 | 100.84076 | 9646 ft | 433 kts | 179° |
| 2026-05-08 14:46 | 14.17826 | 100.84037 | 9119 ft | 397 kts | 179° |
| 2026-05-08 14:46 | 14.15047 | 100.84000 | 8612 ft | 402 kts | 179° |
| 2026-05-08 14:47 | 14.12235 | 100.83966 | 8118 ft | 405 kts | 179° |
| 2026-05-08 14:47 | 14.09413 | 100.83936 | 7639 ft | 407 kts | 179° |
| 2026-05-08 14:47 | 14.06578 | 100.83911 | 7173 ft | 408 kts | 179° |
| 2026-05-08 14:47 | 14.03742 | 100.83889 | 6718 ft | 408 kts | 179° |
| 2026-05-08 14:48 | 14.00910 | 100.83873 | 6283 ft | 406 kts | 180° |
| 2026-05-08 14:48 | 13.98089 | 100.83878 | 5812 ft | 405 kts | 179° |
| 2026-05-08 14:48 | 13.95308 | 100.83877 | 5661 ft | 391 kts | 179° |
| 2026-05-08 14:48 | 13.92835 | 100.83858 | 5487 ft | 323 kts | 179° |
| 2026-05-08 14:49 | 13.90781 | 100.83826 | 5219 ft | 270 kts | 180° |
| 2026-05-08 14:49 | 13.89054 | 100.83781 | 4862 ft | 238 kts | 179° |
| 2026-05-08 14:49 | 13.87340 | 100.83750 | 4539 ft | 254 kts | 179° |
| 2026-05-08 14:49 | 13.85534 | 100.83726 | 4381 ft | 260 kts | 179° |
| 2026-05-08 14:50 | 13.83769 | 100.83702 | 4618 ft | 249 kts | 179° |
| 2026-05-08 14:50 | 13.82019 | 100.83676 | 4625 ft | 254 kts | 179° |
| 2026-05-08 14:50 | 13.80248 | 100.83442 | 4576 ft | 259 kts | 191° |
| 2026-05-08 14:50 | 13.78487 | 100.82988 | 4545 ft | 263 kts | 194° |
| 2026-05-08 14:51 | 13.76706 | 100.82485 | 4516 ft | 268 kts | 194° |
| 2026-05-08 14:51 | 13.74899 | 100.81968 | 4505 ft | 272 kts | 194° |
| 2026-05-08 14:51 | 13.73064 | 100.81442 | 4500 ft | 275 kts | 194° |
| 2026-05-08 14:51 | 13.71208 | 100.80912 | 4504 ft | 279 kts | 194° |
| 2026-05-08 14:52 | 13.69325 | 100.80375 | 4512 ft | 282 kts | 194° |
| 2026-05-08 14:52 | 13.65504 | 100.79284 | 4551 ft | 288 kts | 194° |
| 2026-05-08 14:52 | 13.63587 | 100.78735 | 4583 ft | 291 kts | 194° |
| 2026-05-08 14:53 | 13.61603 | 100.78166 | 4628 ft | 293 kts | 194° |
| 2026-05-08 14:53 | 13.59629 | 100.77603 | 4664 ft | 295 kts | 194° |
| 2026-05-08 14:53 | 13.57644 | 100.77036 | 4720 ft | 297 kts | 194° |
| 2026-05-08 14:53 | 13.55859 | 100.76055 | 4730 ft | 296 kts | 222° |
| 2026-05-08 14:54 | 13.54736 | 100.74289 | 4747 ft | 294 kts | 251° |
| 2026-05-08 14:54 | 13.54595 | 100.72229 | 4744 ft | 290 kts | 281° |
| 2026-05-08 14:54 | 13.55422 | 100.70392 | 4647 ft | 295 kts | 309° |
| 2026-05-08 14:54 | 13.57056 | 100.69070 | 4096 ft | 309 kts | 337° |
| 2026-05-08 14:55 | 13.59189 | 100.68587 | 3601 ft | 323 kts | 351° |
| 2026-05-08 14:55 | 13.61219 | 100.67680 | 3484 ft | 320 kts | 323° |
| 2026-05-08 14:55 | 13.62626 | 100.65934 | 3452 ft | 319 kts | 295° |
| 2026-05-08 14:55 | 13.63116 | 100.63743 | 3402 ft | 315 kts | 268° |
| 2026-05-08 14:56 | 13.62562 | 100.61657 | 3616 ft | 298 kts | 238° |
| 2026-05-08 14:56 | 13.61181 | 100.60175 | 3803 ft | 283 kts | 211° |
| 2026-05-08 14:56 | 13.59414 | 100.59369 | 3987 ft | 273 kts | 189° |
| 2026-05-08 14:56 | 13.57590 | 100.59516 | 4122 ft | 258 kts | 157° |
| 2026-05-08 14:57 | 13.56219 | 100.60588 | 4189 ft | 245 kts | 124° |
| 2026-05-08 14:57 | 13.55719 | 100.62182 | 4256 ft | 232 kts | 89° |
| 2026-05-08 14:57 | 13.56218 | 100.63680 | 4269 ft | 220 kts | 51° |
| 2026-05-08 14:57 | 13.57008 | 100.64992 | 4260 ft | 213 kts | 66° |
| 2026-05-08 14:58 | 13.57592 | 100.66371 | 4227 ft | 208 kts | 70° |
| 2026-05-08 14:58 | 13.58145 | 100.67737 | 4125 ft | 201 kts | 68° |
| 2026-05-08 14:58 | 13.58630 | 100.68891 | 3709 ft | 149 kts | 67° |
| 2026-05-08 14:58 | 13.59109 | 100.69800 | 2824 ft | 178 kts | 58° |
| 2026-05-08 14:59 | 13.59849 | 100.70763 | 2258 ft | 161 kts | 39° |
| 2026-05-08 14:59 | 13.61944 | 100.71712 | 1162 ft | 174 kts | 14° |
| 2026-05-08 14:59 | 13.63028 | 100.71980 | 784 ft | 181 kts | 14° |
| 2026-05-08 15:00 | 13.64162 | 100.72286 | 587 ft | 168 kts | 17° |
| 2026-05-08 15:00 | 13.65266 | 100.72583 | 381 ft | 154 kts | 17° |
| 2026-05-08 15:00 | 13.66322 | 100.72862 | 105 ft | 143 kts | 16° |
| 2026-05-08 15:00 | 13.67168 | 100.73095 | 8 ft | 111 kts | 14° |
| 2026-05-08 15:01 | 13.67780 | 100.73257 | 13 ft | 80 kts | 14° |
| 2026-05-08 15:01 | 13.68148 | 100.73371 | 12 ft | 23 kts | 27° |
| 2026-05-08 15:01 | 13.68228 | 100.73431 | 10 ft | 10 kts | 46° |
| 2026-05-08 15:01 | 13.68267 | 100.73478 | 10 ft | 8 kts | 50° |
| 2026-05-08 15:02 | 13.68295 | 100.73512 | 10 ft | 5 kts | 47° |
| 2026-05-08 15:02 | 13.68296 | 100.73513 | 10 ft | 0 kts | 47° |
| 2026-05-08 15:02 | 13.68296 | 100.73514 | 10 ft | 2 kts | 47° |
| 2026-05-08 15:03 | 13.68299 | 100.73516 | 10 ft | 0 kts | 47° |
| 2026-05-08 15:04 | 13.68301 | 100.73519 | 10 ft | 0 kts | 47° |
| 2026-05-08 15:04 | 13.68302 | 100.73520 | 10 ft | 0 kts | 47° |